sensor_id;sensor_type;location;lat;lon;timestamp;P1;durP1;ratioP1;P2;durP2;ratioP2
22922;SDS011;11627;51.322;22.816;2022-10-23T00:01:23;82.72;;;35.08;;
22922;SDS011;11627;51.322;22.816;2022-10-23T00:03:54;78.63;;;34.90;;
22922;SDS011;11627;51.322;22.816;2022-10-23T00:06:22;66.22;;;32.53;;
22922;SDS011;11627;51.322;22.816;2022-10-23T00:08:47;68.13;;;34.25;;
22922;SDS011;11627;51.322;22.816;2022-10-23T00:11:14;66.57;;;33.25;;
22922;SDS011;11627;51.322;22.816;2022-10-23T00:13:42;63.90;;;30.75;;
22922;SDS011;11627;51.322;22.816;2022-10-23T00:16:08;59.08;;;29.35;;
22922;SDS011;11627;51.322;22.816;2022-10-23T00:18:34;64.85;;;30.98;;
22922;SDS011;11627;51.322;22.816;2022-10-23T00:21:01;66.78;;;30.38;;
22922;SDS011;11627;51.322;22.816;2022-10-23T00:23:27;60.28;;;28.90;;
22922;SDS011;11627;51.322;22.816;2022-10-23T00:25:52;64.20;;;31.60;;
22922;SDS011;11627;51.322;22.816;2022-10-23T00:28:18;64.30;;;29.40;;
22922;SDS011;11627;51.322;22.816;2022-10-23T00:30:43;59.53;;;29.30;;
22922;SDS011;11627;51.322;22.816;2022-10-23T00:33:09;56.22;;;28.38;;
22922;SDS011;11627;51.322;22.816;2022-10-23T00:35:38;60.28;;;29.70;;
22922;SDS011;11627;51.322;22.816;2022-10-23T00:38:04;60.08;;;27.63;;
22922;SDS011;11627;51.322;22.816;2022-10-23T00:40:31;61.20;;;30.17;;
22922;SDS011;11627;51.322;22.816;2022-10-23T00:42:56;57.70;;;30.13;;
22922;SDS011;11627;51.322;22.816;2022-10-23T00:45:24;52.83;;;27.58;;
22922;SDS011;11627;51.322;22.816;2022-10-23T00:47:51;51.05;;;26.20;;
22922;SDS011;11627;51.322;22.816;2022-10-23T00:50:18;62.25;;;28.33;;
22922;SDS011;11627;51.322;22.816;2022-10-23T00:52:48;51.78;;;26.85;;
22922;SDS011;11627;51.322;22.816;2022-10-23T00:55:16;58.13;;;26.85;;
22922;SDS011;11627;51.322;22.816;2022-10-23T00:57:44;52.38;;;25.52;;
22922;SDS011;11627;51.322;22.816;2022-10-23T01:00:15;53.22;;;24.13;;
22922;SDS011;11627;51.322;22.816;2022-10-23T01:02:53;53.15;;;24.27;;
22922;SDS011;11627;51.322;22.816;2022-10-23T01:05:21;56.45;;;25.13;;
22922;SDS011;11627;51.322;22.816;2022-10-23T01:08:09;56.55;;;26.05;;
22922;SDS011;11627;51.322;22.816;2022-10-23T01:10:44;56.05;;;23.65;;
22922;SDS011;11627;51.322;22.816;2022-10-23T01:13:15;50.65;;;25.10;;
22922;SDS011;11627;51.322;22.816;2022-10-23T01:18:39;51.15;;;22.77;;
22922;SDS011;11627;51.322;22.816;2022-10-23T01:21:12;50.20;;;24.55;;
22922;SDS011;11627;51.322;22.816;2022-10-23T01:24:31;48.83;;;23.77;;
22922;SDS011;11627;51.322;22.816;2022-10-23T01:29:51;51.72;;;25.58;;
22922;SDS011;11627;51.322;22.816;2022-10-23T01:32:46;52.42;;;24.48;;
22922;SDS011;11627;51.322;22.816;2022-10-23T01:35:23;58.42;;;25.30;;
22922;SDS011;11627;51.322;22.816;2022-10-23T01:37:52;54.40;;;24.23;;
22922;SDS011;11627;51.322;22.816;2022-10-23T01:40:29;51.38;;;25.17;;
22922;SDS011;11627;51.322;22.816;2022-10-23T01:43:10;55.35;;;22.80;;
22922;SDS011;11627;51.322;22.816;2022-10-23T01:45:45;51.78;;;23.50;;
22922;SDS011;11627;51.322;22.816;2022-10-23T01:48:26;43.75;;;20.30;;
22922;SDS011;11627;51.322;22.816;2022-10-23T01:50:54;48.13;;;22.73;;
22922;SDS011;11627;51.322;22.816;2022-10-23T01:53:23;45.00;;;22.05;;
22922;SDS011;11627;51.322;22.816;2022-10-23T01:55:52;44.60;;;21.30;;
22922;SDS011;11627;51.322;22.816;2022-10-23T01:58:20;45.33;;;20.90;;
22922;SDS011;11627;51.322;22.816;2022-10-23T02:00:46;44.13;;;20.70;;
22922;SDS011;11627;51.322;22.816;2022-10-23T02:03:15;51.78;;;21.42;;
22922;SDS011;11627;51.322;22.816;2022-10-23T02:05:42;50.88;;;22.20;;
22922;SDS011;11627;51.322;22.816;2022-10-23T02:08:08;50.45;;;23.27;;
22922;SDS011;11627;51.322;22.816;2022-10-23T02:13:26;48.08;;;22.35;;
22922;SDS011;11627;51.322;22.816;2022-10-23T02:16:41;53.33;;;20.95;;
22922;SDS011;11627;51.322;22.816;2022-10-23T02:19:21;52.90;;;22.45;;
22922;SDS011;11627;51.322;22.816;2022-10-23T02:22:11;49.83;;;20.85;;
22922;SDS011;11627;51.322;22.816;2022-10-23T02:24:52;35.70;;;15.98;;
22922;SDS011;11627;51.322;22.816;2022-10-23T02:27:32;47.50;;;19.65;;
22922;SDS011;11627;51.322;22.816;2022-10-23T02:30:04;43.88;;;20.23;;
22922;SDS011;11627;51.322;22.816;2022-10-23T02:32:32;45.75;;;20.40;;
22922;SDS011;11627;51.322;22.816;2022-10-23T02:35:00;45.13;;;19.50;;
22922;SDS011;11627;51.322;22.816;2022-10-23T02:37:26;34.30;;;14.63;;
22922;SDS011;11627;51.322;22.816;2022-10-23T02:39:52;45.30;;;18.40;;
22922;SDS011;11627;51.322;22.816;2022-10-23T02:42:23;42.35;;;20.02;;
22922;SDS011;11627;51.322;22.816;2022-10-23T02:44:59;39.22;;;18.70;;
22922;SDS011;11627;51.322;22.816;2022-10-23T02:50:16;36.72;;;18.13;;
22922;SDS011;11627;51.322;22.816;2022-10-23T02:53:04;38.30;;;18.17;;
22922;SDS011;11627;51.322;22.816;2022-10-23T02:58:09;42.78;;;18.95;;
22922;SDS011;11627;51.322;22.816;2022-10-23T03:00:55;39.67;;;19.00;;
22922;SDS011;11627;51.322;22.816;2022-10-23T03:06:38;36.30;;;18.08;;
22922;SDS011;11627;51.322;22.816;2022-10-23T03:09:05;39.05;;;17.33;;
22922;SDS011;11627;51.322;22.816;2022-10-23T03:11:32;36.33;;;18.52;;
22922;SDS011;11627;51.322;22.816;2022-10-23T03:13:57;37.95;;;19.40;;
22922;SDS011;11627;51.322;22.816;2022-10-23T03:16:23;35.65;;;18.17;;
22922;SDS011;11627;51.322;22.816;2022-10-23T03:18:48;38.53;;;18.20;;
22922;SDS011;11627;51.322;22.816;2022-10-23T03:21:14;40.13;;;17.88;;
22922;SDS011;11627;51.322;22.816;2022-10-23T03:23:39;40.78;;;19.63;;
22922;SDS011;11627;51.322;22.816;2022-10-23T03:26:05;38.45;;;19.08;;
22922;SDS011;11627;51.322;22.816;2022-10-23T03:28:30;44.17;;;19.98;;
22922;SDS011;11627;51.322;22.816;2022-10-23T03:30:56;43.70;;;20.77;;
22922;SDS011;11627;51.322;22.816;2022-10-23T03:33:22;39.20;;;19.40;;
22922;SDS011;11627;51.322;22.816;2022-10-23T03:35:48;39.17;;;19.17;;
22922;SDS011;11627;51.322;22.816;2022-10-23T03:38:14;42.43;;;19.83;;
22922;SDS011;11627;51.322;22.816;2022-10-23T03:40:40;43.58;;;19.10;;
22922;SDS011;11627;51.322;22.816;2022-10-23T03:43:06;39.35;;;19.40;;
22922;SDS011;11627;51.322;22.816;2022-10-23T03:45:32;41.05;;;19.90;;
22922;SDS011;11627;51.322;22.816;2022-10-23T03:47:57;43.75;;;20.40;;
22922;SDS011;11627;51.322;22.816;2022-10-23T03:50:23;44.03;;;20.10;;
22922;SDS011;11627;51.322;22.816;2022-10-23T03:52:49;43.17;;;20.10;;
22922;SDS011;11627;51.322;22.816;2022-10-23T03:55:15;47.58;;;21.55;;
22922;SDS011;11627;51.322;22.816;2022-10-23T03:57:41;41.17;;;21.05;;
22922;SDS011;11627;51.322;22.816;2022-10-23T04:00:06;44.50;;;21.30;;
22922;SDS011;11627;51.322;22.816;2022-10-23T04:02:32;41.65;;;18.67;;
22922;SDS011;11627;51.322;22.816;2022-10-23T04:04:58;41.25;;;19.20;;
22922;SDS011;11627;51.322;22.816;2022-10-23T04:07:24;44.30;;;21.67;;
22922;SDS011;11627;51.322;22.816;2022-10-23T04:09:49;44.78;;;21.38;;
22922;SDS011;11627;51.322;22.816;2022-10-23T04:12:15;47.63;;;21.42;;
22922;SDS011;11627;51.322;22.816;2022-10-23T04:14:40;37.55;;;19.00;;
22922;SDS011;11627;51.322;22.816;2022-10-23T04:17:06;46.78;;;21.02;;
22922;SDS011;11627;51.322;22.816;2022-10-23T04:19:31;53.05;;;21.08;;
22922;SDS011;11627;51.322;22.816;2022-10-23T04:21:57;49.80;;;22.90;;
22922;SDS011;11627;51.322;22.816;2022-10-23T04:24:23;47.30;;;22.08;;
22922;SDS011;11627;51.322;22.816;2022-10-23T04:26:49;50.13;;;21.92;;
22922;SDS011;11627;51.322;22.816;2022-10-23T04:29:15;46.60;;;22.15;;
22922;SDS011;11627;51.322;22.816;2022-10-23T04:31:40;49.20;;;21.40;;
22922;SDS011;11627;51.322;22.816;2022-10-23T04:34:06;45.53;;;21.98;;
22922;SDS011;11627;51.322;22.816;2022-10-23T04:36:31;41.40;;;20.33;;
22922;SDS011;11627;51.322;22.816;2022-10-23T04:38:57;43.05;;;20.67;;
22922;SDS011;11627;51.322;22.816;2022-10-23T04:41:23;44.65;;;22.17;;
22922;SDS011;11627;51.322;22.816;2022-10-23T04:43:48;44.60;;;21.83;;
22922;SDS011;11627;51.322;22.816;2022-10-23T04:46:14;47.95;;;21.75;;
22922;SDS011;11627;51.322;22.816;2022-10-23T04:48:39;46.88;;;22.23;;
22922;SDS011;11627;51.322;22.816;2022-10-23T04:51:05;51.40;;;22.70;;
22922;SDS011;11627;51.322;22.816;2022-10-23T04:53:31;46.78;;;21.23;;
22922;SDS011;11627;51.322;22.816;2022-10-23T04:55:57;45.67;;;22.77;;
22922;SDS011;11627;51.322;22.816;2022-10-23T04:58:24;53.95;;;23.35;;
22922;SDS011;11627;51.322;22.816;2022-10-23T05:00:50;53.50;;;23.17;;
22922;SDS011;11627;51.322;22.816;2022-10-23T05:03:16;50.33;;;22.98;;
22922;SDS011;11627;51.322;22.816;2022-10-23T05:05:42;53.13;;;23.40;;
22922;SDS011;11627;51.322;22.816;2022-10-23T05:08:09;53.38;;;23.90;;
22922;SDS011;11627;51.322;22.816;2022-10-23T05:10:36;50.65;;;22.75;;
22922;SDS011;11627;51.322;22.816;2022-10-23T05:13:02;49.78;;;23.90;;
22922;SDS011;11627;51.322;22.816;2022-10-23T05:15:29;54.80;;;24.27;;
22922;SDS011;11627;51.322;22.816;2022-10-23T05:17:55;50.83;;;23.52;;
22922;SDS011;11627;51.322;22.816;2022-10-23T05:20:27;47.72;;;22.30;;
22922;SDS011;11627;51.322;22.816;2022-10-23T05:22:56;48.70;;;22.80;;
22922;SDS011;11627;51.322;22.816;2022-10-23T05:25:24;48.28;;;22.15;;
22922;SDS011;11627;51.322;22.816;2022-10-23T05:27:50;44.20;;;22.77;;
22922;SDS011;11627;51.322;22.816;2022-10-23T05:30:16;43.70;;;22.52;;
22922;SDS011;11627;51.322;22.816;2022-10-23T05:32:42;50.75;;;23.48;;
22922;SDS011;11627;51.322;22.816;2022-10-23T05:35:12;51.92;;;23.10;;
22922;SDS011;11627;51.322;22.816;2022-10-23T05:37:41;52.33;;;24.15;;
22922;SDS011;11627;51.322;22.816;2022-10-23T05:40:09;49.08;;;23.35;;
22922;SDS011;11627;51.322;22.816;2022-10-23T05:42:35;45.20;;;21.67;;
22922;SDS011;11627;51.322;22.816;2022-10-23T05:45:01;53.67;;;23.75;;
22922;SDS011;11627;51.322;22.816;2022-10-23T05:47:26;53.15;;;23.65;;
22922;SDS011;11627;51.322;22.816;2022-10-23T05:49:52;54.53;;;24.75;;
22922;SDS011;11627;51.322;22.816;2022-10-23T05:52:17;57.88;;;25.52;;
22922;SDS011;11627;51.322;22.816;2022-10-23T05:54:44;54.70;;;23.55;;
22922;SDS011;11627;51.322;22.816;2022-10-23T05:57:09;55.38;;;24.55;;
22922;SDS011;11627;51.322;22.816;2022-10-23T05:59:35;53.58;;;24.58;;
22922;SDS011;11627;51.322;22.816;2022-10-23T06:02:00;51.47;;;24.27;;
22922;SDS011;11627;51.322;22.816;2022-10-23T06:04:26;51.88;;;24.60;;
22922;SDS011;11627;51.322;22.816;2022-10-23T06:06:52;48.08;;;22.95;;
22922;SDS011;11627;51.322;22.816;2022-10-23T06:09:17;51.63;;;23.90;;
22922;SDS011;11627;51.322;22.816;2022-10-23T06:11:43;51.92;;;24.23;;
22922;SDS011;11627;51.322;22.816;2022-10-23T06:14:08;54.53;;;24.75;;
22922;SDS011;11627;51.322;22.816;2022-10-23T06:16:34;52.97;;;24.00;;
22922;SDS011;11627;51.322;22.816;2022-10-23T06:19:00;54.47;;;24.85;;
22922;SDS011;11627;51.322;22.816;2022-10-23T06:21:25;45.78;;;23.38;;
22922;SDS011;11627;51.322;22.816;2022-10-23T06:23:51;46.58;;;23.98;;
22922;SDS011;11627;51.322;22.816;2022-10-23T06:26:17;49.80;;;21.98;;
22922;SDS011;11627;51.322;22.816;2022-10-23T06:28:43;51.55;;;24.77;;
22922;SDS011;11627;51.322;22.816;2022-10-23T06:31:10;48.45;;;23.85;;
22922;SDS011;11627;51.322;22.816;2022-10-23T06:33:37;63.13;;;27.30;;
22922;SDS011;11627;51.322;22.816;2022-10-23T06:36:03;59.53;;;27.25;;
22922;SDS011;11627;51.322;22.816;2022-10-23T06:38:29;55.92;;;26.95;;
22922;SDS011;11627;51.322;22.816;2022-10-23T06:41:00;63.35;;;28.42;;
22922;SDS011;11627;51.322;22.816;2022-10-23T06:43:26;60.90;;;27.95;;
22922;SDS011;11627;51.322;22.816;2022-10-23T06:45:51;64.88;;;28.98;;
22922;SDS011;11627;51.322;22.816;2022-10-23T06:48:17;62.42;;;29.42;;
22922;SDS011;11627;51.322;22.816;2022-10-23T06:50:42;59.42;;;29.52;;
22922;SDS011;11627;51.322;22.816;2022-10-23T06:53:08;63.10;;;29.40;;
22922;SDS011;11627;51.322;22.816;2022-10-23T06:55:33;64.95;;;29.50;;
22922;SDS011;11627;51.322;22.816;2022-10-23T06:57:59;67.78;;;29.08;;
22922;SDS011;11627;51.322;22.816;2022-10-23T07:00:25;66.65;;;27.23;;
22922;SDS011;11627;51.322;22.816;2022-10-23T07:02:51;68.00;;;30.13;;
22922;SDS011;11627;51.322;22.816;2022-10-23T07:05:17;59.53;;;27.92;;
22922;SDS011;11627;51.322;22.816;2022-10-23T07:07:44;63.70;;;27.38;;
22922;SDS011;11627;51.322;22.816;2022-10-23T07:10:09;60.17;;;27.52;;
22922;SDS011;11627;51.322;22.816;2022-10-23T07:12:35;70.65;;;29.02;;
22922;SDS011;11627;51.322;22.816;2022-10-23T07:15:00;61.08;;;28.40;;
22922;SDS011;11627;51.322;22.816;2022-10-23T07:17:27;61.38;;;29.10;;
22922;SDS011;11627;51.322;22.816;2022-10-23T07:19:53;60.20;;;27.35;;
22922;SDS011;11627;51.322;22.816;2022-10-23T07:22:18;61.47;;;24.92;;
22922;SDS011;11627;51.322;22.816;2022-10-23T07:24:44;63.53;;;29.13;;
22922;SDS011;11627;51.322;22.816;2022-10-23T07:27:09;62.97;;;30.13;;
22922;SDS011;11627;51.322;22.816;2022-10-23T07:29:35;59.78;;;27.13;;
22922;SDS011;11627;51.322;22.816;2022-10-23T07:32:01;64.97;;;30.38;;
22922;SDS011;11627;51.322;22.816;2022-10-23T07:34:26;62.53;;;30.42;;
22922;SDS011;11627;51.322;22.816;2022-10-23T07:36:52;61.40;;;29.83;;
22922;SDS011;11627;51.322;22.816;2022-10-23T07:39:19;60.72;;;30.27;;
22922;SDS011;11627;51.322;22.816;2022-10-23T07:41:46;56.60;;;26.55;;
22922;SDS011;11627;51.322;22.816;2022-10-23T07:44:12;62.78;;;28.67;;
22922;SDS011;11627;51.322;22.816;2022-10-23T07:46:37;55.97;;;27.77;;
22922;SDS011;11627;51.322;22.816;2022-10-23T07:49:03;57.22;;;28.27;;
22922;SDS011;11627;51.322;22.816;2022-10-23T07:51:29;52.50;;;26.38;;
22922;SDS011;11627;51.322;22.816;2022-10-23T07:53:54;53.30;;;26.35;;
22922;SDS011;11627;51.322;22.816;2022-10-23T07:56:21;56.90;;;29.35;;
22922;SDS011;11627;51.322;22.816;2022-10-23T07:58:49;52.25;;;26.65;;
22922;SDS011;11627;51.322;22.816;2022-10-23T08:01:18;52.85;;;27.00;;
22922;SDS011;11627;51.322;22.816;2022-10-23T08:03:51;49.60;;;25.17;;
22922;SDS011;11627;51.322;22.816;2022-10-23T08:06:17;43.78;;;19.10;;
22922;SDS011;11627;51.322;22.816;2022-10-23T08:08:42;44.08;;;22.48;;
22922;SDS011;11627;51.322;22.816;2022-10-23T08:11:09;44.78;;;23.35;;
22922;SDS011;11627;51.322;22.816;2022-10-23T08:13:37;49.42;;;21.42;;
22922;SDS011;11627;51.322;22.816;2022-10-23T08:16:02;46.45;;;24.52;;
22922;SDS011;11627;51.322;22.816;2022-10-23T08:18:28;43.17;;;23.83;;
22922;SDS011;11627;51.322;22.816;2022-10-23T08:20:58;44.72;;;23.92;;
22922;SDS011;11627;51.322;22.816;2022-10-23T08:23:26;45.00;;;22.67;;
22922;SDS011;11627;51.322;22.816;2022-10-23T08:25:56;42.67;;;22.52;;
22922;SDS011;11627;51.322;22.816;2022-10-23T08:28:24;43.05;;;22.42;;
22922;SDS011;11627;51.322;22.816;2022-10-23T08:30:50;44.47;;;21.02;;
22922;SDS011;11627;51.322;22.816;2022-10-23T08:33:15;38.00;;;21.85;;
22922;SDS011;11627;51.322;22.816;2022-10-23T08:35:41;41.50;;;20.40;;
22922;SDS011;11627;51.322;22.816;2022-10-23T08:38:06;42.67;;;22.75;;
22922;SDS011;11627;51.322;22.816;2022-10-23T08:40:33;38.92;;;21.58;;
22922;SDS011;11627;51.322;22.816;2022-10-23T08:45:35;44.50;;;23.17;;
22922;SDS011;11627;51.322;22.816;2022-10-23T08:48:12;40.78;;;22.65;;
22922;SDS011;11627;51.322;22.816;2022-10-23T08:50:52;39.28;;;22.08;;
22922;SDS011;11627;51.322;22.816;2022-10-23T08:53:28;42.15;;;21.67;;
22922;SDS011;11627;51.322;22.816;2022-10-23T08:56:00;47.08;;;22.95;;
22922;SDS011;11627;51.322;22.816;2022-10-23T09:01:33;42.70;;;22.60;;
22922;SDS011;11627;51.322;22.816;2022-10-23T09:04:00;38.92;;;21.63;;
22922;SDS011;11627;51.322;22.816;2022-10-23T09:06:35;46.40;;;24.10;;
22922;SDS011;11627;51.322;22.816;2022-10-23T09:12:11;50.50;;;26.80;;
22922;SDS011;11627;51.322;22.816;2022-10-23T09:17:46;47.60;;;24.67;;
22922;SDS011;11627;51.322;22.816;2022-10-23T09:22:43;43.35;;;24.25;;
22922;SDS011;11627;51.322;22.816;2022-10-23T09:25:14;40.13;;;23.42;;
22922;SDS011;11627;51.322;22.816;2022-10-23T09:27:46;36.53;;;20.70;;
22922;SDS011;11627;51.322;22.816;2022-10-23T09:30:23;37.38;;;20.30;;
22922;SDS011;11627;51.322;22.816;2022-10-23T09:32:50;40.35;;;24.25;;
22922;SDS011;11627;51.322;22.816;2022-10-23T09:35:22;43.58;;;23.40;;
22922;SDS011;11627;51.322;22.816;2022-10-23T09:37:50;35.97;;;20.58;;
22922;SDS011;11627;51.322;22.816;2022-10-23T09:42:51;34.50;;;19.77;;
22922;SDS011;11627;51.322;22.816;2022-10-23T09:45:23;36.33;;;18.70;;
22922;SDS011;11627;51.322;22.816;2022-10-23T09:47:49;30.73;;;18.35;;
22922;SDS011;11627;51.322;22.816;2022-10-23T09:50:17;36.90;;;18.83;;
22922;SDS011;11627;51.322;22.816;2022-10-23T09:52:44;34.67;;;17.40;;
22922;SDS011;11627;51.322;22.816;2022-10-23T09:55:23;30.40;;;17.83;;
22922;SDS011;11627;51.322;22.816;2022-10-23T09:57:50;28.33;;;17.58;;
22922;SDS011;11627;51.322;22.816;2022-10-23T10:03:04;35.90;;;18.67;;
22922;SDS011;11627;51.322;22.816;2022-10-23T10:05:31;31.00;;;18.20;;
22922;SDS011;11627;51.322;22.816;2022-10-23T10:08:16;32.17;;;17.80;;
22922;SDS011;11627;51.322;22.816;2022-10-23T10:11:10;30.58;;;17.65;;
22922;SDS011;11627;51.322;22.816;2022-10-23T10:14:03;30.10;;;17.98;;
22922;SDS011;11627;51.322;22.816;2022-10-23T10:16:54;34.85;;;16.85;;
22922;SDS011;11627;51.322;22.816;2022-10-23T10:22:07;24.77;;;16.17;;
22922;SDS011;11627;51.322;22.816;2022-10-23T10:27:29;28.30;;;16.40;;
22922;SDS011;11627;51.322;22.816;2022-10-23T10:30:14;29.58;;;15.80;;
22922;SDS011;11627;51.322;22.816;2022-10-23T10:40:35;26.95;;;15.15;;
22922;SDS011;11627;51.322;22.816;2022-10-23T10:43:27;29.65;;;15.77;;
22922;SDS011;11627;51.322;22.816;2022-10-23T10:46:08;23.17;;;14.07;;
22922;SDS011;11627;51.322;22.816;2022-10-23T10:48:58;28.60;;;15.48;;
22922;SDS011;11627;51.322;22.816;2022-10-23T10:51:42;30.40;;;14.60;;
22922;SDS011;11627;51.322;22.816;2022-10-23T10:57:25;28.45;;;13.80;;
22922;SDS011;11627;51.322;22.816;2022-10-23T11:00:18;30.83;;;14.70;;
22922;SDS011;11627;51.322;22.816;2022-10-23T11:03:09;22.02;;;12.98;;
22922;SDS011;11627;51.322;22.816;2022-10-23T11:05:41;22.33;;;13.18;;
22922;SDS011;11627;51.322;22.816;2022-10-23T11:08:14;22.77;;;11.90;;
22922;SDS011;11627;51.322;22.816;2022-10-23T11:10:52;22.63;;;12.82;;
22922;SDS011;11627;51.322;22.816;2022-10-23T11:15:57;23.73;;;12.80;;
22922;SDS011;11627;51.322;22.816;2022-10-23T11:18:30;23.48;;;11.82;;
22922;SDS011;11627;51.322;22.816;2022-10-23T11:40:36;17.65;;;9.23;;
22922;SDS011;11627;51.322;22.816;2022-10-23T11:45:53;17.55;;;8.77;;
22922;SDS011;11627;51.322;22.816;2022-10-23T11:48:20;14.20;;;7.80;;
22922;SDS011;11627;51.322;22.816;2022-10-23T11:50:58;16.20;;;7.20;;
22922;SDS011;11627;51.322;22.816;2022-10-23T11:53:45;13.10;;;6.78;;
22922;SDS011;11627;51.322;22.816;2022-10-23T12:01:23;14.70;;;6.65;;
22922;SDS011;11627;51.322;22.816;2022-10-23T12:06:37;17.35;;;8.05;;
22922;SDS011;11627;51.322;22.816;2022-10-23T12:09:17;13.77;;;6.80;;
22922;SDS011;11627;51.322;22.816;2022-10-23T12:12:01;16.80;;;7.47;;
22922;SDS011;11627;51.322;22.816;2022-10-23T12:14:40;15.35;;;7.00;;
22922;SDS011;11627;51.322;22.816;2022-10-23T12:17:19;13.65;;;6.45;;
22922;SDS011;11627;51.322;22.816;2022-10-23T12:19:55;13.80;;;6.63;;
22922;SDS011;11627;51.322;22.816;2022-10-23T12:22:26;12.88;;;7.05;;
22922;SDS011;11627;51.322;22.816;2022-10-23T12:25:22;15.35;;;7.05;;
22922;SDS011;11627;51.322;22.816;2022-10-23T12:28:00;14.88;;;7.25;;
22922;SDS011;11627;51.322;22.816;2022-10-23T12:30:38;12.57;;;6.72;;
22922;SDS011;11627;51.322;22.816;2022-10-23T12:33:20;12.10;;;6.07;;
22922;SDS011;11627;51.322;22.816;2022-10-23T12:36:14;16.05;;;6.35;;
22922;SDS011;11627;51.322;22.816;2022-10-23T12:38:46;10.18;;;5.75;;
22922;SDS011;11627;51.322;22.816;2022-10-23T12:43:52;13.35;;;6.20;;
22922;SDS011;11627;51.322;22.816;2022-10-23T12:49:11;10.15;;;5.82;;
22922;SDS011;11627;51.322;22.816;2022-10-23T12:51:42;9.98;;;6.57;;
22922;SDS011;11627;51.322;22.816;2022-10-23T12:54:18;11.10;;;6.47;;
22922;SDS011;11627;51.322;22.816;2022-10-23T12:56:45;10.77;;;6.20;;
22922;SDS011;11627;51.322;22.816;2022-10-23T12:59:30;11.70;;;6.35;;
22922;SDS011;11627;51.322;22.816;2022-10-23T13:02:05;11.82;;;6.50;;
22922;SDS011;11627;51.322;22.816;2022-10-23T13:04:46;12.23;;;6.53;;
22922;SDS011;11627;51.322;22.816;2022-10-23T13:07:14;15.80;;;7.05;;
22922;SDS011;11627;51.322;22.816;2022-10-23T13:09:43;12.00;;;7.57;;
22922;SDS011;11627;51.322;22.816;2022-10-23T13:12:29;14.00;;;6.85;;
22922;SDS011;11627;51.322;22.816;2022-10-23T13:20:25;14.60;;;6.95;;
22922;SDS011;11627;51.322;22.816;2022-10-23T13:25:28;11.98;;;7.13;;
22922;SDS011;11627;51.322;22.816;2022-10-23T13:30:59;14.95;;;7.00;;
22922;SDS011;11627;51.322;22.816;2022-10-23T13:34:27;10.50;;;6.93;;
22922;SDS011;11627;51.322;22.816;2022-10-23T13:36:24;16.65;;;7.10;;
22922;SDS011;11627;51.322;22.816;2022-10-23T13:39:00;16.45;;;7.00;;
22922;SDS011;11627;51.322;22.816;2022-10-23T13:41:38;12.27;;;7.13;;
22922;SDS011;11627;51.322;22.816;2022-10-23T13:44:04;13.63;;;7.75;;
22922;SDS011;11627;51.322;22.816;2022-10-23T13:46:30;14.10;;;7.55;;
22922;SDS011;11627;51.322;22.816;2022-10-23T13:48:55;14.50;;;7.28;;
22922;SDS011;11627;51.322;22.816;2022-10-23T13:53:49;15.57;;;7.93;;
22922;SDS011;11627;51.322;22.816;2022-10-23T13:56:17;16.08;;;7.38;;
22922;SDS011;11627;51.322;22.816;2022-10-23T13:58:44;14.80;;;7.60;;
22922;SDS011;11627;51.322;22.816;2022-10-23T14:01:21;14.10;;;7.60;;
22922;SDS011;11627;51.322;22.816;2022-10-23T14:03:49;12.75;;;7.18;;
22922;SDS011;11627;51.322;22.816;2022-10-23T14:06:16;14.80;;;8.00;;
22922;SDS011;11627;51.322;22.816;2022-10-23T14:08:41;15.38;;;7.68;;
22922;SDS011;11627;51.322;22.816;2022-10-23T14:11:07;12.10;;;7.35;;
22922;SDS011;11627;51.322;22.816;2022-10-23T14:13:34;13.68;;;7.47;;
22922;SDS011;11627;51.322;22.816;2022-10-23T14:16:00;11.18;;;7.05;;
22922;SDS011;11627;51.322;22.816;2022-10-23T14:18:25;12.45;;;7.05;;
22922;SDS011;11627;51.322;22.816;2022-10-23T14:20:51;12.88;;;7.55;;
22922;SDS011;11627;51.322;22.816;2022-10-23T14:23:16;11.30;;;8.07;;
22922;SDS011;11627;51.322;22.816;2022-10-23T14:25:42;19.60;;;8.63;;
22922;SDS011;11627;51.322;22.816;2022-10-23T14:28:08;14.63;;;8.45;;
22922;SDS011;11627;51.322;22.816;2022-10-23T14:30:35;14.18;;;8.20;;
22922;SDS011;11627;51.322;22.816;2022-10-23T14:33:01;14.88;;;7.40;;
22922;SDS011;11627;51.322;22.816;2022-10-23T14:35:27;12.70;;;7.85;;
22922;SDS011;11627;51.322;22.816;2022-10-23T14:37:53;14.23;;;7.97;;
22922;SDS011;11627;51.322;22.816;2022-10-23T14:40:19;14.63;;;8.68;;
22922;SDS011;11627;51.322;22.816;2022-10-23T14:42:44;15.15;;;9.27;;
22922;SDS011;11627;51.322;22.816;2022-10-23T14:45:10;15.27;;;9.77;;
22922;SDS011;11627;51.322;22.816;2022-10-23T14:47:35;16.75;;;9.38;;
22922;SDS011;11627;51.322;22.816;2022-10-23T14:50:01;18.75;;;10.15;;
22922;SDS011;11627;51.322;22.816;2022-10-23T14:52:28;17.05;;;10.02;;
22922;SDS011;11627;51.322;22.816;2022-10-23T14:54:53;14.85;;;8.88;;
22922;SDS011;11627;51.322;22.816;2022-10-23T14:57:19;15.55;;;8.77;;
22922;SDS011;11627;51.322;22.816;2022-10-23T14:59:46;16.25;;;9.32;;
22922;SDS011;11627;51.322;22.816;2022-10-23T15:02:13;14.43;;;9.23;;
22922;SDS011;11627;51.322;22.816;2022-10-23T15:04:39;18.00;;;9.32;;
22922;SDS011;11627;51.322;22.816;2022-10-23T15:07:04;17.77;;;9.32;;
22922;SDS011;11627;51.322;22.816;2022-10-23T15:09:30;16.95;;;10.00;;
22922;SDS011;11627;51.322;22.816;2022-10-23T15:11:59;14.98;;;9.98;;
22922;SDS011;11627;51.322;22.816;2022-10-23T15:14:24;15.75;;;10.00;;
22922;SDS011;11627;51.322;22.816;2022-10-23T15:16:50;15.20;;;10.07;;
22922;SDS011;11627;51.322;22.816;2022-10-23T15:19:15;16.98;;;10.18;;
22922;SDS011;11627;51.322;22.816;2022-10-23T15:21:41;18.92;;;10.95;;
22922;SDS011;11627;51.322;22.816;2022-10-23T15:24:06;19.55;;;10.35;;
22922;SDS011;11627;51.322;22.816;2022-10-23T15:26:32;18.77;;;10.65;;
22922;SDS011;11627;51.322;22.816;2022-10-23T15:28:59;19.00;;;12.32;;
22922;SDS011;11627;51.322;22.816;2022-10-23T15:33:57;16.67;;;11.05;;
22922;SDS011;11627;51.322;22.816;2022-10-23T15:36:24;23.88;;;12.60;;
22922;SDS011;11627;51.322;22.816;2022-10-23T15:38:50;19.20;;;12.20;;
22922;SDS011;11627;51.322;22.816;2022-10-23T15:41:20;20.85;;;12.32;;
22922;SDS011;11627;51.322;22.816;2022-10-23T15:43:54;18.63;;;12.40;;
22922;SDS011;11627;51.322;22.816;2022-10-23T15:46:19;20.23;;;13.50;;
22922;SDS011;11627;51.322;22.816;2022-10-23T15:48:45;28.35;;;14.52;;
22922;SDS011;11627;51.322;22.816;2022-10-23T15:51:11;28.80;;;15.32;;
22922;SDS011;11627;51.322;22.816;2022-10-23T15:53:36;28.38;;;16.08;;
22922;SDS011;11627;51.322;22.816;2022-10-23T15:56:02;27.67;;;15.85;;
22922;SDS011;11627;51.322;22.816;2022-10-23T15:58:27;36.50;;;17.88;;
22922;SDS011;11627;51.322;22.816;2022-10-23T16:00:53;35.58;;;21.35;;
22922;SDS011;11627;51.322;22.816;2022-10-23T16:03:19;38.45;;;22.40;;
22922;SDS011;11627;51.322;22.816;2022-10-23T16:05:44;33.25;;;21.65;;
22922;SDS011;11627;51.322;22.816;2022-10-23T16:08:10;32.15;;;19.52;;
22922;SDS011;11627;51.322;22.816;2022-10-23T16:10:39;35.35;;;21.10;;
22922;SDS011;11627;51.322;22.816;2022-10-23T16:13:06;34.45;;;20.42;;